Time;durP1;ratioP1;P1;durP2;ratioP2;P2;SDS_P1;SDS_P2;PMS_P1;PMS_P2;Temp;Humidity;BMP_temperature;BMP_pressure;BME280_temperature;BME280_humidity;BME280_pressure;Samples;Min_cycle;Max_cycle;Signal;HPM_P1;HPM_P2
2022/09/03 00:01:00;;;;;;;0.90;0.50;;;16.30;97.10;;;;;;5067641;28;20433;-57
2022/09/03 00:03:46;;;;;;;2.85;0.50;;;16.40;97.00;;;;;;5067736;28;20131;-56
2022/09/03 00:06:25;;;;;;;1.77;0.60;;;16.30;97.10;;;;;;5067875;28;20040;-57
2022/09/03 00:09:13;;;;;;;2.15;0.82;;;16.30;97.20;;;;;;5067036;28;20083;-57
2022/09/03 00:11:57;;;;;;;0.70;0.47;;;16.30;97.20;;;;;;5067420;28;20084;-56
2022/09/03 00:14:34;;;;;;;1.65;0.50;;;16.30;97.30;;;;;;5067393;28;20402;-57
2022/09/03 00:17:12;;;;;;;0.70;0.70;;;16.20;97.30;;;;;;5068037;28;20064;-57
2022/09/03 00:20:29;;;;;;;3.10;0.55;;;16.20;97.30;;;;;;5049527;28;20388;-56
2022/09/03 00:23:00;;;;;;;3.22;0.88;;;16.20;97.50;;;;;;5006131;28;20075;-56
2022/09/03 00:25:38;;;;;;;1.45;0.40;;;16.10;97.50;;;;;;5070266;28;20052;-56
2022/09/03 00:28:12;;;;;;;1.00;0.82;;;16.10;97.70;;;;;;5070876;28;20071;-57
2022/09/03 00:30:40;;;;;;;1.15;0.50;;;16.10;97.70;;;;;;5052465;28;20098;-57
2022/09/03 00:33:22;;;;;;;0.75;0.50;;;16.10;97.50;;;;;;5052681;28;20151;-57
2022/09/03 00:36:07;;;;;;;0.75;0.40;;;16.00;97.90;;;;;;5071025;28;20627;-56
2022/09/03 00:38:33;;;;;;;1.02;0.40;;;15.90;98.00;;;;;;5057048;28;20086;-57
2022/09/03 00:41:20;;;;;;;1.75;0.65;;;15.90;97.80;;;;;;5070617;28;20493;-57
2022/09/03 00:43:58;;;;;;;2.35;0.73;;;15.90;98.10;;;;;;5070622;28;20552;-57
2022/09/03 00:46:48;;;;;;;3.30;0.82;;;15.90;98.30;;;;;;5070787;28;20131;-57
2022/09/03 00:49:41;;;;;;;1.58;0.50;;;15.80;98.40;;;;;;5070276;28;20455;-57
2022/09/03 00:52:13;;;;;;;0.40;0.40;;;15.80;98.50;;;;;;5070767;28;20049;-57
2022/09/03 00:54:53;;;;;;;2.67;0.85;;;15.70;98.60;;;;;;5070178;28;20506;-57
2022/09/03 00:57:37;;;;;;;1.38;0.68;;;15.70;98.70;;;;;;5070350;28;20048;-57
2022/09/03 01:00:12;;;;;;;1.13;0.80;;;15.60;98.90;;;;;;5069664;28;20051;-57
2022/09/03 01:02:44;;;;;;;1.17;0.60;;;15.60;98.90;;;;;;5050637;28;20049;-57
2022/09/03 01:05:36;;;;;;;3.95;0.43;;;15.50;99.20;;;;;;5050278;28;20502;-57
2022/09/03 01:08:33;;;;;;;1.30;0.75;;;15.50;99.10;;;;;;5049362;28;20057;-56
2022/09/03 01:11:09;;;;;;;0.43;0.43;;;15.50;99.40;;;;;;5052131;28;20102;-56
2022/09/03 01:14:14;;;;;;;3.13;0.82;;;15.40;99.30;;;;;;5070128;28;20548;-56
2022/09/03 01:17:02;;;;;;;0.47;0.45;;;15.40;99.70;;;;;;5058861;28;20052;-57
2022/09/03 01:19:53;;;;;;;2.05;0.65;;;15.40;99.40;;;;;;5050532;28;20064;-57
2022/09/03 01:22:48;;;;;;;0.77;0.40;;;15.40;99.80;;;;;;5052105;28;20116;-56
2022/09/03 01:25:46;;;;;;;1.40;0.52;;;15.30;99.80;;;;;;5014655;28;20065;-56
2022/09/03 01:28:42;;;;;;;0.93;0.70;;;15.30;99.90;;;;;;5069784;28;20390;-57
2022/09/03 01:31:25;;;;;;;0.82;0.55;;;15.30;99.90;;;;;;5069764;28;20052;-57
2022/09/03 01:34:26;;;;;;;1.92;0.73;;;15.30;99.80;;;;;;5070254;28;20443;-57
2022/09/03 01:37:10;;;;;;;0.73;0.70;;;15.20;99.90;;;;;;5078611;28;20048;-57
2022/09/03 01:40:01;;;;;;;0.80;0.70;;;15.10;99.90;;;;;;5051361;28;20048;-57
2022/09/03 01:42:30;;;;;;;0.60;0.60;;;15.10;99.90;;;;;;5051718;28;20497;-57
2022/09/03 01:45:00;;;;;;;3.15;0.90;;;15.00;99.90;;;;;;5069700;28;20056;-57
2022/09/03 01:47:49;;;;;;;0.80;0.68;;;14.90;99.90;;;;;;5069031;28;20044;-57
2022/09/03 01:50:33;;;;;;;1.48;0.47;;;14.90;99.90;;;;;;5069426;28;20059;-56
2022/09/03 01:53:41;;;;;;;3.92;0.70;;;14.80;99.90;;;;;;5069393;28;20115;-57
2022/09/03 01:56:43;;;;;;;1.52;0.60;;;14.70;99.90;;;;;;5040430;28;20087;-56
2022/09/03 01:59:31;;;;;;;4.90;1.38;;;14.70;99.90;;;;;;5069088;28;20091;-56
2022/09/03 02:02:04;;;;;;;1.23;0.70;;;14.70;99.90;;;;;;5068916;28;20044;-56
2022/09/03 02:04:30;;;;;;;3.13;0.77;;;14.60;99.90;;;;;;5069394;28;20056;-56
2022/09/03 02:07:00;;;;;;;2.05;0.88;;;14.60;99.90;;;;;;5051240;28;20044;-57
2022/09/03 02:09:26;;;;;;;2.10;0.90;;;14.60;99.90;;;;;;5068979;28;20127;-57
2022/09/03 02:12:02;;;;;;;0.40;0.40;;;14.60;99.90;;;;;;5068802;28;20482;-57
2022/09/03 02:14:29;;;;;;;1.17;0.63;;;14.60;99.90;;;;;;5050819;28;20052;-56
2022/09/03 02:16:56;;;;;;;0.93;0.77;;;14.60;99.90;;;;;;5068670;28;20540;-57
2022/09/03 02:19:23;;;;;;;1.98;1.00;;;14.60;99.90;;;;;;5049096;28;20111;-57
2022/09/03 02:21:54;;;;;;;2.17;0.60;;;14.60;99.90;;;;;;5031238;28;20135;-57
2022/09/03 02:24:20;;;;;;;1.73;0.68;;;14.50;99.90;;;;;;5048544;28;20100;-56
2022/09/03 02:26:46;;;;;;;1.90;1.00;;;14.60;99.90;;;;;;5048514;28;20092;-56
2022/09/03 02:29:14;;;;;;;7.00;0.70;;;14.60;99.90;;;;;;5056045;28;20059;-56
2022/09/03 02:31:40;;;;;;;3.67;0.70;;;14.50;99.90;;;;;;5068408;28;20537;-56
2022/09/03 02:34:06;;;;;;;0.98;0.68;;;14.50;99.90;;;;;;5068419;28;20084;-56
2022/09/03 02:36:34;;;;;;;2.38;0.82;;;14.50;99.90;;;;;;5062207;28;20045;-57
2022/09/03 02:39:00;;;;;;;12.15;1.10;;;14.40;99.90;;;;;;5047867;28;20088;-56
2022/09/03 02:41:26;;;;;;;2.80;0.93;;;14.40;99.90;;;;;;5048484;28;20095;-57
2022/09/03 02:44:14;;;;;;;2.85;1.13;;;14.40;99.90;;;;;;5055188;28;20040;-57
2022/09/03 02:46:46;;;;;;;2.05;0.80;;;14.30;99.90;;;;;;5068616;28;20129;-57
2022/09/03 02:49:11;;;;;;;1.58;0.80;;;14.40;99.90;;;;;;5068380;28;20052;-57
2022/09/03 02:51:42;;;;;;;2.25;0.95;;;14.30;99.90;;;;;;5033954;28;20044;-56
2022/09/03 02:54:09;;;;;;;1.15;1.05;;;14.30;99.90;;;;;;5068216;28;20131;-57
2022/09/03 02:56:35;;;;;;;1.45;0.80;;;14.30;99.90;;;;;;5068335;28;20397;-56
2022/09/03 02:59:03;;;;;;;2.58;0.85;;;14.30;99.90;;;;;;5067666;28;20059;-56
2022/09/03 03:01:29;;;;;;;0.57;0.57;;;14.30;99.90;;;;;;5068006;28;20036;-57
2022/09/03 03:03:54;;;;;;;0.50;0.50;;;14.30;99.90;;;;;;5068344;28;20584;-56
2022/09/03 03:06:20;;;;;;;1.42;1.20;;;14.30;99.90;;;;;;5068406;28;20442;-57
2022/09/03 03:08:47;;;;;;;1.30;0.70;;;14.30;99.90;;;;;;5068232;28;20045;-57
2022/09/03 03:11:17;;;;;;;1.17;0.65;;;14.30;99.90;;;;;;5067856;28;20486;-57
2022/09/03 03:13:44;;;;;;;1.65;0.88;;;14.40;99.90;;;;;;5068380;28;20052;-57
2022/09/03 03:16:11;;;;;;;0.75;0.73;;;14.40;99.90;;;;;;5067589;28;20060;-57
2022/09/03 03:18:37;;;;;;;2.10;0.85;;;14.40;99.90;;;;;;5053613;28;20041;-57
2022/09/03 03:21:10;;;;;;;1.40;0.95;;;14.50;99.90;;;;;;5048213;28;20406;-57
2022/09/03 03:23:37;;;;;;;4.03;0.70;;;14.50;99.90;;;;;;5047606;28;20167;-56
2022/09/03 03:26:05;;;;;;;1.90;0.88;;;14.50;99.90;;;;;;5048231;28;20060;-56
2022/09/03 03:28:33;;;;;;;1.67;0.75;;;14.50;99.90;;;;;;5053333;28;20080;-57
2022/09/03 03:31:10;;;;;;;3.65;1.00;;;14.50;99.90;;;;;;5067871;28;20556;-57
2022/09/03 03:33:36;;;;;;;3.65;1.27;;;14.50;99.90;;;;;;5067864;28;20048;-56
2022/09/03 03:36:13;;;;;;;3.67;0.93;;;14.60;99.90;;;;;;5066143;28;20055;-57
2022/09/03 03:38:40;;;;;;;1.58;0.95;;;14.60;99.90;;;;;;5047885;28;20151;-57
2022/09/03 03:41:17;;;;;;;0.98;0.68;;;14.60;99.90;;;;;;5048179;28;20045;-56
2022/09/03 03:43:42;;;;;;;1.35;0.80;;;14.50;99.90;;;;;;5055954;28;20045;-56
2022/09/03 03:46:09;;;;;;;2.20;1.00;;;14.50;99.90;;;;;;5066841;28;20053;-56
2022/09/03 03:48:36;;;;;;;1.27;0.82;;;14.50;99.90;;;;;;5067842;28;20398;-57
2022/09/03 03:51:06;;;;;;;0.73;0.68;;;14.50;99.90;;;;;;5069912;28;20044;-57
2022/09/03 03:53:33;;;;;;;1.17;1.08;;;14.50;99.90;;;;;;5071175;28;20090;-57
2022/09/03 03:56:02;;;;;;;1.05;0.77;;;14.50;99.90;;;;;;5071271;28;20502;-56
2022/09/03 03:58:28;;;;;;;4.32;0.98;;;14.50;99.90;;;;;;5071503;28;20059;-56
2022/09/03 04:00:54;;;;;;;1.10;0.95;;;14.50;99.90;;;;;;5070539;28;20482;-57
2022/09/03 04:03:20;;;;;;;1.83;0.90;;;14.40;99.90;;;;;;5071025;28;20098;-57
2022/09/03 04:05:56;;;;;;;3.17;1.00;;;14.40;99.90;;;;;;5071519;28;20060;-57
2022/09/03 04:08:22;;;;;;;0.80;0.70;;;14.40;99.90;;;;;;5071027;28;20052;-57
2022/09/03 04:10:48;;;;;;;2.03;1.02;;;14.40;99.90;;;;;;5071458;28;20045;-56
2022/09/03 04:13:14;;;;;;;3.33;1.10;;;14.40;99.90;;;;;;5070919;28;20080;-60
2022/09/03 04:15:41;;;;;;;3.63;1.00;;;14.40;99.90;;;;;;5071123;28;20111;-58
2022/09/03 04:18:07;;;;;;;1.10;0.77;;;14.40;99.90;;;;;;5061380;28;20053;-62
2022/09/03 04:20:34;;;;;;;0.88;0.75;;;14.40;99.90;;;;;;5050985;28;20887;-64
2022/09/03 04:23:01;;;;;;;1.10;0.80;;;14.40;99.90;;;;;;5050976;28;20052;-63
2022/09/03 04:25:27;;;;;;;0.88;0.77;;;14.40;99.90;;;;;;5033988;28;20462;-59
2022/09/03 04:27:53;;;;;;;3.33;0.88;;;14.40;99.90;;;;;;5070942;28;20128;-62
2022/09/03 04:30:19;;;;;;;2.08;1.02;;;14.40;99.90;;;;;;5070565;28;20123;-57
2022/09/03 04:32:53;;;;;;;2.67;1.17;;;14.40;99.90;;;;;;5071312;28;20474;-61
2022/09/03 04:35:24;;;;;;;3.60;1.23;;;14.40;99.90;;;;;;5070875;28;20573;-63
2022/09/03 04:37:50;;;;;;;1.15;1.02;;;14.40;99.90;;;;;;5053702;28;20053;-68
2022/09/03 04:40:16;;;;;;;1.90;0.93;;;14.40;99.90;;;;;;5050760;28;20448;-62
2022/09/03 04:42:42;;;;;;;1.70;1.00;;;14.30;99.90;;;;;;5050548;28;20402;-59
2022/09/03 04:45:08;;;;;;;2.10;0.77;;;14.30;99.90;;;;;;5071213;28;20043;-62
2022/09/03 04:47:36;;;;;;;2.08;1.17;;;14.30;99.90;;;;;;5070418;28;20060;-57
2022/09/03 04:50:05;;;;;;;1.27;1.10;;;14.30;99.90;;;;;;5069993;28;20084;-57
2022/09/03 04:52:31;;;;;;;2.72;1.05;;;14.20;99.90;;;;;;5069898;28;20052;-57
2022/09/03 04:54:57;;;;;;;2.38;0.90;;;14.50;99.90;;;;;;5062476;28;20037;-57
2022/09/03 04:57:23;;;;;;;4.25;1.17;;;14.20;99.90;;;;;;5067114;28;20056;-57
2022/09/03 04:59:49;;;;;;;0.90;0.82;;;14.10;99.90;;;;;;5052016;28;20490;-57
2022/09/03 05:02:15;;;;;;;1.17;1.00;;;14.20;99.90;;;;;;5069119;28;20044;-57
2022/09/03 05:04:41;;;;;;;2.08;1.15;;;14.10;99.90;;;;;;5070439;28;20155;-56
2022/09/03 05:07:07;;;;;;;1.75;1.05;;;14.20;99.90;;;;;;5052201;28;20046;-56
2022/09/03 05:09:33;;;;;;;0.95;0.90;;;14.10;99.90;;;;;;5070008;28;20063;-57
2022/09/03 05:11:59;;;;;;;2.65;1.15;;;14.10;99.90;;;;;;5070297;28;20548;-56
2022/09/03 05:14:24;;;;;;;2.08;1.10;;;14.10;99.90;;;;;;5070320;28;20048;-56
2022/09/03 05:16:50;;;;;;;3.10;1.30;;;14.10;99.90;;;;;;5069752;28;20163;-57
2022/09/03 05:19:16;;;;;;;2.80;1.10;;;14.00;99.90;;;;;;5050167;28;20055;-56
2022/09/03 05:21:42;;;;;;;3.03;1.40;;;14.00;99.90;;;;;;5050238;28;20531;-57
2022/09/03 05:24:10;;;;;;;2.80;0.93;;;14.00;99.90;;;;;;5049863;28;20122;-57
2022/09/03 05:26:37;;;;;;;1.85;1.10;;;14.10;99.90;;;;;;5049554;28;20044;-56
2022/09/03 05:29:06;;;;;;;2.15;1.42;;;14.00;99.90;;;;;;5070293;28;20060;-57
2022/09/03 05:31:34;;;;;;;1.23;0.93;;;14.00;99.90;;;;;;5062010;28;20380;-57
2022/09/03 05:34:02;;;;;;;2.67;1.67;;;14.00;99.90;;;;;;5031808;28;20080;-56
2022/09/03 05:36:31;;;;;;;2.08;1.55;;;14.00;99.90;;;;;;5062611;28;20486;-57
2022/09/03 05:38:58;;;;;;;1.27;1.10;;;14.20;99.90;;;;;;5069297;28;20437;-56
2022/09/03 05:41:24;;;;;;;0.88;0.82;;;14.10;99.90;;;;;;5051606;28;20055;-57
2022/09/03 05:43:54;;;;;;;2.08;1.20;;;14.10;99.90;;;;;;5069430;28;20182;-57
2022/09/03 05:46:29;;;;;;;1.65;1.25;;;14.20;99.90;;;;;;5068739;28;20052;-57
2022/09/03 05:48:56;;;;;;;2.80;1.15;;;14.20;99.90;;;;;;5069316;28;20048;-56
2022/09/03 05:51:22;;;;;;;1.65;1.30;;;14.30;99.90;;;;;;5069403;28;20540;-57
2022/09/03 05:53:48;;;;;;;1.55;1.45;;;14.40;99.90;;;;;;5051460;28;20546;-57
2022/09/03 05:56:19;;;;;;;1.52;1.13;;;14.50;99.90;;;;;;5069677;28;20049;-57
2022/09/03 05:58:53;;;;;;;1.13;1.02;;;14.50;99.90;;;;;;5069509;28;20040;-57
2022/09/03 06:01:30;;;;;;;3.28;1.20;;;14.60;99.90;;;;;;5068403;28;20482;-57
2022/09/03 06:04:00;;;;;;;1.63;1.02;;;14.70;99.90;;;;;;5065734;28;21090;-57
2022/09/03 06:06:28;;;;;;;2.65;1.13;;;14.80;99.90;;;;;;5056107;28;20056;-57
2022/09/03 06:08:56;;;;;;;1.58;1.20;;;14.90;99.90;;;;;;5050617;28;20044;-57
2022/09/03 06:11:25;;;;;;;2.20;1.25;;;15.00;99.90;;;;;;5068946;28;20052;-57
2022/09/03 06:13:51;;;;;;;1.90;1.10;;;15.10;99.90;;;;;;5068222;28;20052;-57
2022/09/03 06:16:17;;;;;;;1.27;1.05;;;15.20;99.90;;;;;;5068242;28;20044;-58
2022/09/03 06:18:43;;;;;;;2.05;1.20;;;15.40;99.90;;;;;;5062392;28;20095;-57
2022/09/03 06:21:08;;;;;;;8.18;2.42;;;15.50;99.90;;;;;;5055720;28;20601;-57
2022/09/03 06:23:34;;;;;;;1.38;1.10;;;15.50;99.90;;;;;;5068083;28;20045;-56
2022/09/03 06:26:11;;;;;;;3.22;1.13;;;15.70;99.90;;;;;;5068226;28;20139;-57
2022/09/03 06:28:44;;;;;;;1.65;1.38;;;15.70;99.90;;;;;;5068233;28;20596;-57
2022/09/03 06:31:12;;;;;;;1.85;1.02;;;15.90;99.90;;;;;;5068629;28;20080;-57
2022/09/03 06:33:39;;;;;;;1.10;1.00;;;15.90;99.90;;;;;;5067913;28;20498;-57
2022/09/03 06:36:08;;;;;;;1.33;1.10;;;16.00;99.90;;;;;;5065083;28;20098;-58
2022/09/03 06:38:35;;;;;;;2.55;1.15;;;16.30;99.90;;;;;;5068107;28;20075;-56
2022/09/03 06:41:09;;;;;;;1.48;1.30;;;16.40;99.90;;;;;;5050067;28;20060;-57
2022/09/03 06:43:40;;;;;;;1.20;0.90;;;16.50;99.90;;;;;;5068351;28;20051;-57
2022/09/03 06:46:16;;;;;;;4.13;1.33;;;16.80;99.90;;;;;;5068706;28;20040;-57
2022/09/03 06:48:43;;;;;;;1.10;0.80;;;16.90;99.90;;;;;;5068215;28;20059;-57
2022/09/03 06:51:12;;;;;;;1.30;1.13;;;16.90;99.90;;;;;;5067945;28;20084;-57
2022/09/03 06:53:43;;;;;;;1.40;1.10;;;17.10;99.90;;;;;;5067849;28;20135;-57
2022/09/03 06:56:11;;;;;;;1.58;1.10;;;17.20;99.90;;;;;;5067875;28;20399;-57
2022/09/03 06:58:41;;;;;;;1.25;0.85;;;17.30;99.90;;;;;;5066914;28;20049;-57
2022/09/03 07:01:12;;;;;;;2.08;1.05;;;17.40;99.90;;;;;;5051125;28;20045;-57
2022/09/03 07:03:39;;;;;;;1.25;0.90;;;17.60;99.90;;;;;;5064925;28;20136;-57
2022/09/03 07:06:16;;;;;;;1.50;1.05;;;17.60;99.90;;;;;;5066888;28;20037;-57
2022/09/03 07:08:43;;;;;;;5.07;0.90;;;17.80;99.90;;;;;;5066150;28;20044;-57
2022/09/03 07:11:11;;;;;;;1.95;1.13;;;17.90;99.90;;;;;;5057869;28;20415;-57
2022/09/03 07:13:43;;;;;;;2.50;1.08;;;18.00;99.90;;;;;;5056605;28;20060;-57
2022/09/03 07:16:11;;;;;;;2.50;1.02;;;18.20;99.90;;;;;;5056454;28;20052;-57
2022/09/03 07:18:38;;;;;;;1.13;1.00;;;18.30;99.90;;;;;;5056233;28;20041;-57
2022/09/03 07:21:07;;;;;;;1.95;1.00;;;18.40;99.90;;;;;;5057436;28;20424;-57
2022/09/03 07:23:33;;;;;;;3.05;1.00;;;18.60;99.90;;;;;;5058598;28;20055;-57
2022/09/03 07:26:02;;;;;;;1.38;1.27;;;18.70;99.90;;;;;;5055661;28;20056;-57
2022/09/03 07:28:31;;;;;;;1.60;0.90;;;19.00;99.90;;;;;;5057023;28;20055;-57
2022/09/03 07:31:02;;;;;;;7.90;1.73;;;18.90;99.30;;;;;;5060334;28;20494;-57
2022/09/03 07:33:30;;;;;;;1.90;0.80;;;19.10;99.20;;;;;;5056520;28;20048;-57
2022/09/03 07:36:01;;;;;;;3.58;1.15;;;19.10;98.80;;;;;;5055788;28;20042;-57
2022/09/03 07:38:26;;;;;;;3.33;0.80;;;19.40;98.60;;;;;;5056227;28;21054;-57
2022/09/03 07:41:00;;;;;;;3.03;0.80;;;19.60;98.50;;;;;;5064309;28;20032;-57
2022/09/03 07:43:28;;;;;;;2.70;0.55;;;19.60;98.00;;;;;;5056791;28;20041;-58
2022/09/03 07:45:55;;;;;;;1.40;1.10;;;19.70;98.00;;;;;;5045057;28;20046;-57
2022/09/03 07:48:22;;;;;;;2.53;0.90;;;19.80;97.90;;;;;;5038202;28;20503;-57
2022/09/03 07:50:48;;;;;;;2.35;1.05;;;20.10;97.60;;;;;;5060294;28;20051;-57
2022/09/03 07:53:17;;;;;;;1.77;1.23;;;20.00;96.80;;;;;;5061814;28;20044;-57
2022/09/03 07:55:43;;;;;;;0.93;0.85;;;19.90;96.70;;;;;;5036490;28;20490;-57
2022/09/03 07:58:13;;;;;;;1.27;0.82;;;20.20;96.90;;;;;;5048590;28;20065;-67
2022/09/03 08:00:39;;;;;;;4.00;1.20;;;20.20;96.60;;;;;;5049005;28;20045;-67
2022/09/03 08:03:07;;;;;;;2.53;1.00;;;20.30;96.80;;;;;;5027664;28;20498;-63
2022/09/03 08:05:35;;;;;;;1.42;0.75;;;20.70;97.10;;;;;;5032171;28;20436;-61
2022/09/03 08:08:02;;;;;;;1.30;0.90;;;20.70;96.20;;;;;;5058566;28;20053;-58
2022/09/03 08:10:30;;;;;;;1.65;0.65;;;21.20;95.80;;;;;;5057535;28;20048;-58
2022/09/03 08:12:58;;;;;;;1.73;0.80;;;21.40;95.90;;;;;;5052859;28;20582;-59
2022/09/03 08:15:25;;;;;;;0.98;0.60;;;21.60;95.40;;;;;;5036521;28;20099;-57
2022/09/03 08:17:51;;;;;;;3.28;1.35;;;21.90;94.40;;;;;;5053770;28;20051;-57
2022/09/03 08:20:18;;;;;;;1.50;0.68;;;22.30;94.40;;;;;;5053098;28;20053;-57
2022/09/03 08:22:45;;;;;;;3.28;0.82;;;22.40;94.00;;;;;;5064438;28;20056;-57
2022/09/03 08:25:10;;;;;;;2.55;0.70;;;22.70;93.80;;;;;;5045893;28;20069;-58
2022/09/03 08:27:36;;;;;;;1.42;1.00;;;23.00;93.20;;;;;;5036466;28;20383;-57
2022/09/03 08:30:03;;;;;;;1.63;0.70;;;23.00;93.20;;;;;;5046880;28;20131;-57
2022/09/03 08:32:29;;;;;;;2.00;0.90;;;23.10;93.40;;;;;;5047241;28;20096;-58
2022/09/03 08:34:54;;;;;;;3.42;1.05;;;23.50;93.30;;;;;;5061583;28;20040;-57
2022/09/03 08:37:21;;;;;;;3.08;0.75;;;23.50;92.50;;;;;;5060098;28;20127;-57
2022/09/03 08:39:47;;;;;;;0.88;0.75;;;23.90;92.60;;;;;;5068257;28;20059;-58
2022/09/03 08:42:31;;;;;;;1.58;0.80;;;24.00;92.70;;;;;;5069715;28;20045;-58
2022/09/03 08:45:05;;;;;;;0.90;0.80;;;24.20;91.60;;;;;;5055831;28;20053;-59
2022/09/03 08:47:44;;;;;;;1.77;0.73;;;24.20;91.10;;;;;;5049270;28;20056;-64
2022/09/03 08:50:17;;;;;;;1.60;0.80;;;24.10;91.80;;;;;;5061416;28;20067;-59
2022/09/03 08:53:01;;;;;;;0.93;0.55;;;24.20;91.40;;;;;;5066940;28;20470;-64
2022/09/03 08:55:26;;;;;;;;;;;24.30;91.00;;;;;;5053235;28;20087;-58
2022/09/03 08:58:15;;;;;;;1.27;0.73;;;25.00;91.20;;;;;;5049592;28;20358;-59
2022/09/03 09:01:02;;;;;;;1.33;1.02;;;24.80;91.50;;;;;;5062300;28;20049;-61
2022/09/03 09:04:07;;;;;;;1.48;0.80;;;24.90;90.50;;;;;;5065164;28;20494;-60
2022/09/03 09:06:41;;;;;;;1.20;0.70;;;24.90;90.40;;;;;;5067286;28;20900;-59
2022/09/03 09:09:27;;;;;;;2.65;0.90;;;25.00;90.60;;;;;;5068028;28;20132;-62
2022/09/03 09:12:19;;;;;;;3.80;0.77;;;25.10;90.20;;;;;;5067960;28;20101;-67
2022/09/03 09:14:59;;;;;;;4.15;0.93;;;25.60;90.10;;;;;;5066532;28;20044;-61
2022/09/03 09:17:50;;;;;;;0.60;0.60;;;26.10;90.20;;;;;;5060327;28;20071;-64
2022/09/03 09:20:18;;;;;;;1.70;0.88;;;25.70;88.90;;;;;;5053189;28;20087;-70
2022/09/03 09:22:48;;;;;;;3.65;0.73;;;25.90;90.00;;;;;;5033656;28;20407;-58
2022/09/03 09:25:23;;;;;;;2.28;0.90;;;26.00;90.00;;;;;;5064883;28;20057;-62
2022/09/03 09:27:59;;;;;;;5.13;0.95;;;26.60;90.30;;;;;;5057874;28;20080;-58
2022/09/03 09:30:27;;;;;;;0.63;0.60;;;26.60;88.60;;;;;;5056928;28;20080;-58
2022/09/03 09:32:55;;;;;;;1.23;0.60;;;26.60;87.30;;;;;;5057601;28;20114;-58
2022/09/03 09:35:22;;;;;;;1.25;0.60;;;26.80;88.40;;;;;;5063878;28;20068;-58
2022/09/03 09:37:52;;;;;;;0.80;0.68;;;26.60;88.00;;;;;;5057920;28;21407;-58
2022/09/03 09:40:33;;;;;;;2.33;0.70;;;26.30;86.10;;;;;;5058057;28;20513;-58
2022/09/03 09:43:14;;;;;;;1.30;0.70;;;26.30;86.20;;;;;;5061179;28;20056;-58
2022/09/03 09:45:47;;;;;;;1.42;0.93;;;26.70;86.50;;;;;;5059834;28;20081;-58
2022/09/03 09:48:30;;;;;;;2.63;0.50;;;26.60;87.30;;;;;;5056472;28;20060;-58
2022/09/03 09:51:32;;;;;;;2.83;0.60;;;26.70;86.70;;;;;;5056531;28;20044;-58
2022/09/03 09:54:11;;;;;;;1.48;0.93;;;26.70;84.60;;;;;;5057445;28;20098;-59
2022/09/03 09:56:36;;;;;;;0.90;0.65;;;26.80;86.70;;;;;;5059238;28;20051;-60
2022/09/03 09:59:05;;;;;;;3.80;0.98;;;26.80;87.10;;;;;;5059636;28;20044;-63
2022/09/03 10:01:32;;;;;;;4.72;0.98;;;27.00;86.80;;;;;;5033500;28;20053;-61
2022/09/03 10:04:31;;;;;;;0.50;0.47;;;26.70;85.40;;;;;;5056533;28;20036;-64
2022/09/03 10:07:03;;;;;;;5.68;1.00;;;27.00;85.80;;;;;;5047712;28;20071;-58
2022/09/03 10:09:31;;;;;;;0.88;0.60;;;26.70;85.90;;;;;;5059070;28;20051;-61
2022/09/03 10:12:05;;;;;;;3.70;0.77;;;26.90;87.00;;;;;;5060881;28;20123;-58
2022/09/03 10:15:04;;;;;;;5.03;0.93;;;26.90;84.60;;;;;;5059424;28;20052;-58
2022/09/03 10:17:34;;;;;;;2.13;0.68;;;26.70;84.50;;;;;;5006987;28;20553;-58
2022/09/03 10:23:00;;;;;;;;;;;26.80;85.40;;;;;;5055591;28;20056;-59
2022/09/03 10:25:34;;;;;;;1.92;0.60;;;27.00;84.00;;;;;;5052798;28;19932;-58
2022/09/03 10:28:00;;;;;;;3.65;0.98;;;26.70;85.10;;;;;;5056356;28;20060;-58
2022/09/03 10:30:29;;;;;;;4.85;1.05;;;27.10;85.00;;;;;;5059484;28;20098;-58
2022/09/03 10:33:18;;;;;;;2.85;0.57;;;27.20;84.50;;;;;;5054927;28;20066;-58
2022/09/03 10:35:56;;;;;;;2.15;0.75;;;27.00;83.10;;;;;;5059195;28;20445;-58
2022/09/03 10:38:36;;;;;;;5.15;0.50;;;27.10;83.30;;;;;;5050835;28;20124;-58
2022/09/03 10:41:34;;;;;;;5.60;0.98;;;27.10;83.30;;;;;;5051971;28;20048;-58
2022/09/03 10:44:33;;;;;;;3.03;0.60;;;27.20;83.40;;;;;;5058256;28;20532;-58
2022/09/03 10:47:02;;;;;;;4.78;0.65;;;27.40;82.70;;;;;;5067832;28;20388;-58
2022/09/03 10:49:55;;;;;;;3.53;0.70;;;27.40;81.10;;;;;;5050402;28;20125;-59
2022/09/03 10:52:40;;;;;;;1.70;0.53;;;27.20;81.20;;;;;;5068262;28;20383;-60
2022/09/03 10:55:14;;;;;;;2.47;0.88;;;27.40;80.20;;;;;;5068026;28;20327;-59
2022/09/03 10:58:10;;;;;;;0.75;0.73;;;27.20;81.20;;;;;;5068208;28;20047;-59
2022/09/03 11:00:45;;;;;;;1.48;1.10;;;27.30;80.40;;;;;;5065915;28;20055;-59
2022/09/03 11:03:41;;;;;;;4.43;1.33;;;27.50;81.40;;;;;;5064534;28;20417;-59
2022/09/03 11:06:11;;;;;;;2.28;0.40;;;27.30;79.30;;;;;;5044861;28;20048;-59
2022/09/03 11:08:43;;;;;;;4.47;0.68;;;27.50;80.10;;;;;;5064937;28;20132;-59
2022/09/03 11:11:18;;;;;;;0.60;0.50;;;27.60;80.60;;;;;;5053524;28;20182;-59
2022/09/03 11:13:58;;;;;;;1.33;0.82;;;27.60;79.90;;;;;;5064436;28;20140;-60
2022/09/03 11:16:32;;;;;;;3.15;0.73;;;27.50;78.30;;;;;;5055621;28;20039;-59
2022/09/03 11:19:10;;;;;;;3.55;0.95;;;27.50;79.20;;;;;;5063146;28;20052;-59
2022/09/03 11:21:40;;;;;;;1.38;0.60;;;27.40;78.90;;;;;;5066766;28;20045;-59
2022/09/03 11:24:16;;;;;;;4.15;1.17;;;27.80;79.10;;;;;;5058128;28;20044;-59
2022/09/03 11:26:51;;;;;;;4.82;1.20;;;30.00;79.00;;;;;;5057354;28;20036;-59
2022/09/03 11:29:28;;;;;;;5.57;0.80;;;31.20;76.10;;;;;;5059588;28;20057;-60
2022/09/03 11:32:25;;;;;;;0.75;0.52;;;33.00;74.70;;;;;;5057381;28;20197;-60
2022/09/03 11:34:53;;;;;;;3.90;1.38;;;33.20;72.30;;;;;;5062189;28;20048;-59
2022/09/03 11:37:29;;;;;;;1.25;0.52;;;32.80;72.50;;;;;;5058295;28;20043;-59
2022/09/03 11:40:19;;;;;;;1.45;0.50;;;34.30;71.80;;;;;;5062734;28;20846;-59
2022/09/03 11:42:46;;;;;;;0.75;0.55;;;35.10;71.30;;;;;;5047865;28;20041;-59
2022/09/03 11:45:36;;;;;;;1.05;0.75;;;35.50;70.50;;;;;;5059089;28;20052;-59
2022/09/03 11:48:17;;;;;;;1.30;0.82;;;35.60;68.50;;;;;;5046266;28;20086;-58
2022/09/03 11:50:52;;;;;;;2.40;0.57;;;35.50;67.50;;;;;;5046025;28;20041;-58
2022/09/03 11:53:18;;;;;;;1.38;0.70;;;35.40;66.70;;;;;;5045901;28;20048;-58
2022/09/03 11:56:03;;;;;;;2.75;0.65;;;34.90;67.50;;;;;;5049329;28;20545;-58
2022/09/03 11:58:30;;;;;;;2.83;0.77;;;35.40;66.20;;;;;;5046474;28;20142;-59
2022/09/03 12:00:57;;;;;;;1.60;1.23;;;36.10;65.90;;;;;;5046717;28;20049;-59
2022/09/03 12:03:39;;;;;;;1.17;0.80;;;36.00;66.10;;;;;;5046232;28;20041;-59
2022/09/03 12:06:28;;;;;;;3.92;0.50;;;36.40;65.70;;;;;;5059006;28;20509;-59
2022/09/03 12:09:10;;;;;;;2.60;0.45;;;35.60;65.50;;;;;;5055782;28;20052;-58
2022/09/03 12:11:56;;;;;;;1.55;0.60;;;35.80;64.10;;;;;;5062831;28;20044;-59
2022/09/03 12:14:46;;;;;;;2.17;0.50;;;35.50;63.70;;;;;;5069570;28;20127;-59
2022/09/03 12:17:35;;;;;;;4.40;1.02;;;34.40;65.00;;;;;;5049063;28;20044;-59
2022/09/03 12:20:02;;;;;;;0.60;0.60;;;32.60;65.30;;;;;;5067366;28;20040;-59
2022/09/03 12:22:30;;;;;;;3.53;1.13;;;32.00;67.70;;;;;;5068151;28;20036;-59
2022/09/03 12:25:10;;;;;;;1.30;0.80;;;31.70;67.90;;;;;;5068208;28;20893;-59
2022/09/03 12:27:36;;;;;;;2.28;0.57;;;31.40;67.80;;;;;;5039037;28;20053;-59
2022/09/03 12:30:04;;;;;;;0.90;0.70;;;30.90;68.00;;;;;;5049895;28;20041;-59
2022/09/03 12:32:39;;;;;;;2.03;0.90;;;30.50;68.30;;;;;;5049659;28;20049;-59
2022/09/03 12:35:23;;;;;;;0.68;0.65;;;30.50;68.50;;;;;;5064932;28;20482;-59
2022/09/03 12:37:51;;;;;;;0.50;0.50;;;30.30;67.90;;;;;;5065213;28;20051;-59
2022/09/03 12:40:25;;;;;;;2.38;0.70;;;30.20;68.00;;;;;;5059930;28;20037;-59
2022/09/03 12:42:52;;;;;;;4.03;0.90;;;29.90;68.70;;;;;;5054766;28;20053;-60
2022/09/03 12:45:25;;;;;;;1.73;0.80;;;30.20;69.20;;;;;;5054741;28;20589;-59
2022/09/03 12:47:52;;;;;;;3.70;0.63;;;29.90;69.10;;;;;;5055356;28;20097;-58
2022/09/03 12:50:23;;;;;;;4.68;0.77;;;30.10;69.70;;;;;;5054404;28;20102;-59
2022/09/03 12:52:58;;;;;;;0.70;0.65;;;29.60;68.60;;;;;;5062024;28;20040;-59
2022/09/03 12:55:40;;;;;;;4.15;0.55;;;29.90;69.00;;;;;;5060284;28;20139;-59
2022/09/03 12:58:27;;;;;;;0.80;0.65;;;30.20;69.90;;;;;;5059441;28;20060;-59
2022/09/03 13:01:30;;;;;;;2.15;0.60;;;30.30;69.00;;;;;;5060293;28;20402;-59
2022/09/03 13:04:07;;;;;;;0.85;0.60;;;29.90;68.50;;;;;;5023895;28;20055;-58
2022/09/03 13:07:02;;;;;;;3.05;0.82;;;30.20;69.30;;;;;;5061178;28;20045;-59
2022/09/03 13:09:29;;;;;;;2.50;1.00;;;30.20;67.90;;;;;;5061561;28;20100;-59
2022/09/03 13:11:57;;;;;;;1.15;0.50;;;29.80;67.70;;;;;;5062024;28;20114;-59
2022/09/03 13:14:25;;;;;;;1.77;0.50;;;30.10;68.90;;;;;;5068035;28;20071;-59
2022/09/03 13:17:20;;;;;;;6.00;0.98;;;30.80;69.10;;;;;;5065550;28;20048;-58
2022/09/03 13:20:17;;;;;;;2.05;0.60;;;32.10;67.90;;;;;;5069080;28;20453;-59
2022/09/03 13:23:04;;;;;;;3.13;0.73;;;34.10;66.40;;;;;;5065594;28;20048;-59
2022/09/03 13:25:37;;;;;;;2.05;0.77;;;34.40;65.50;;;;;;5061423;28;20060;-59